sensor_id;sensor_type;location;lat;lon;timestamp;P1;durP1;ratioP1;P2;durP2;ratioP2
3369;SDS011;42042;51.948;7.628;2022-08-19T00:00:50;10.10;;;9.10;;
3369;SDS011;42042;51.948;7.628;2022-08-19T00:03:17;10.73;;;8.77;;
3369;SDS011;42042;51.948;7.628;2022-08-19T00:05:44;9.80;;;8.80;;
3369;SDS011;42042;51.948;7.628;2022-08-19T00:08:11;12.60;;;8.37;;
3369;SDS011;42042;51.948;7.628;2022-08-19T00:10:39;10.23;;;9.17;;
3369;SDS011;42042;51.948;7.628;2022-08-19T00:13:07;9.50;;;8.60;;
3369;SDS011;42042;51.948;7.628;2022-08-19T00:15:35;9.97;;;8.97;;
3369;SDS011;42042;51.948;7.628;2022-08-19T00:18:02;11.03;;;9.07;;
3369;SDS011;42042;51.948;7.628;2022-08-19T00:20:30;9.07;;;8.30;;
3369;SDS011;42042;51.948;7.628;2022-08-19T00:22:57;12.53;;;9.87;;
3369;SDS011;42042;51.948;7.628;2022-08-19T00:25:24;10.83;;;8.37;;
3369;SDS011;42042;51.948;7.628;2022-08-19T00:27:51;11.97;;;9.17;;
3369;SDS011;42042;51.948;7.628;2022-08-19T00:30:20;13.10;;;10.43;;
3369;SDS011;42042;51.948;7.628;2022-08-19T00:32:47;13.90;;;9.23;;
3369;SDS011;42042;51.948;7.628;2022-08-19T00:35:15;10.93;;;9.87;;
3369;SDS011;42042;51.948;7.628;2022-08-19T00:37:43;12.50;;;10.33;;
3369;SDS011;42042;51.948;7.628;2022-08-19T00:40:11;10.10;;;9.30;;
3369;SDS011;42042;51.948;7.628;2022-08-19T00:42:38;11.40;;;10.20;;
3369;SDS011;42042;51.948;7.628;2022-08-19T00:45:08;12.80;;;11.47;;
3369;SDS011;42042;51.948;7.628;2022-08-19T00:47:38;12.83;;;10.77;;
3369;SDS011;42042;51.948;7.628;2022-08-19T00:50:05;11.97;;;10.57;;
3369;SDS011;42042;51.948;7.628;2022-08-19T00:52:36;12.37;;;10.30;;
3369;SDS011;42042;51.948;7.628;2022-08-19T00:55:05;12.17;;;10.93;;
3369;SDS011;42042;51.948;7.628;2022-08-19T00:57:38;11.87;;;9.83;;
3369;SDS011;42042;51.948;7.628;2022-08-19T01:00:07;11.90;;;9.63;;
3369;SDS011;42042;51.948;7.628;2022-08-19T01:02:37;12.27;;;10.97;;
3369;SDS011;42042;51.948;7.628;2022-08-19T01:05:06;13.17;;;10.87;;
3369;SDS011;42042;51.948;7.628;2022-08-19T01:07:34;16.10;;;11.33;;
3369;SDS011;42042;51.948;7.628;2022-08-19T01:10:03;16.17;;;11.20;;
3369;SDS011;42042;51.948;7.628;2022-08-19T01:12:30;16.53;;;11.40;;
3369;SDS011;42042;51.948;7.628;2022-08-19T01:14:58;11.90;;;10.80;;
3369;SDS011;42042;51.948;7.628;2022-08-19T01:17:25;11.27;;;9.90;;
3369;SDS011;42042;51.948;7.628;2022-08-19T01:19:54;11.97;;;10.87;;
3369;SDS011;42042;51.948;7.628;2022-08-19T01:22:28;12.40;;;11.20;;
3369;SDS011;42042;51.948;7.628;2022-08-19T01:24:56;13.20;;;11.80;;
3369;SDS011;42042;51.948;7.628;2022-08-19T01:27:24;17.27;;;11.00;;
3369;SDS011;42042;51.948;7.628;2022-08-19T01:29:51;13.57;;;10.67;;
3369;SDS011;42042;51.948;7.628;2022-08-19T01:32:18;16.63;;;11.57;;
3369;SDS011;42042;51.948;7.628;2022-08-19T01:34:45;13.97;;;12.10;;
3369;SDS011;42042;51.948;7.628;2022-08-19T01:37:13;13.30;;;11.90;;
3369;SDS011;42042;51.948;7.628;2022-08-19T01:39:42;13.70;;;11.37;;
3369;SDS011;42042;51.948;7.628;2022-08-19T01:42:10;15.40;;;11.93;;
3369;SDS011;42042;51.948;7.628;2022-08-19T01:44:37;14.90;;;11.67;;
3369;SDS011;42042;51.948;7.628;2022-08-19T01:47:06;16.73;;;12.90;;
3369;SDS011;42042;51.948;7.628;2022-08-19T01:49:34;13.03;;;11.63;;
3369;SDS011;42042;51.948;7.628;2022-08-19T01:52:02;12.90;;;11.70;;
3369;SDS011;42042;51.948;7.628;2022-08-19T01:54:30;16.80;;;12.20;;
3369;SDS011;42042;51.948;7.628;2022-08-19T01:57:00;14.07;;;12.60;;
3369;SDS011;42042;51.948;7.628;2022-08-19T01:59:28;14.00;;;12.30;;
3369;SDS011;42042;51.948;7.628;2022-08-19T02:01:56;15.57;;;12.30;;
3369;SDS011;42042;51.948;7.628;2022-08-19T02:04:23;17.80;;;11.33;;
3369;SDS011;42042;51.948;7.628;2022-08-19T02:06:52;16.90;;;11.97;;
3369;SDS011;42042;51.948;7.628;2022-08-19T02:09:19;15.47;;;13.60;;
3369;SDS011;42042;51.948;7.628;2022-08-19T02:11:46;13.43;;;12.03;;
3369;SDS011;42042;51.948;7.628;2022-08-19T02:14:15;13.30;;;11.90;;
3369;SDS011;42042;51.948;7.628;2022-08-19T02:16:42;17.90;;;12.40;;
3369;SDS011;42042;51.948;7.628;2022-08-19T02:19:10;16.90;;;11.80;;
3369;SDS011;42042;51.948;7.628;2022-08-19T02:21:37;17.63;;;12.20;;
3369;SDS011;42042;51.948;7.628;2022-08-19T02:24:05;15.00;;;12.10;;
3369;SDS011;42042;51.948;7.628;2022-08-19T02:26:32;12.97;;;11.60;;
3369;SDS011;42042;51.948;7.628;2022-08-19T02:29:00;18.60;;;13.50;;
3369;SDS011;42042;51.948;7.628;2022-08-19T02:31:28;14.70;;;13.20;;
3369;SDS011;42042;51.948;7.628;2022-08-19T02:33:56;16.47;;;12.60;;
3369;SDS011;42042;51.948;7.628;2022-08-19T02:36:24;16.87;;;13.33;;
3369;SDS011;42042;51.948;7.628;2022-08-19T02:38:52;18.10;;;14.43;;
3369;SDS011;42042;51.948;7.628;2022-08-19T02:41:19;14.67;;;13.27;;
3369;SDS011;42042;51.948;7.628;2022-08-19T02:43:47;18.93;;;13.77;;
3369;SDS011;42042;51.948;7.628;2022-08-19T02:46:15;18.00;;;12.50;;
3369;SDS011;42042;51.948;7.628;2022-08-19T02:48:47;15.53;;;11.70;;
3369;SDS011;42042;51.948;7.628;2022-08-19T02:51:18;15.90;;;12.40;;
3369;SDS011;42042;51.948;7.628;2022-08-19T02:53:45;17.63;;;13.57;;
3369;SDS011;42042;51.948;7.628;2022-08-19T02:56:13;14.37;;;12.87;;
3369;SDS011;42042;51.948;7.628;2022-08-19T02:58:40;13.67;;;12.37;;
3369;SDS011;42042;51.948;7.628;2022-08-19T03:01:08;18.23;;;14.40;;
3369;SDS011;42042;51.948;7.628;2022-08-19T03:03:36;16.20;;;13.63;;
3369;SDS011;42042;51.948;7.628;2022-08-19T03:06:06;15.13;;;13.37;;
3369;SDS011;42042;51.948;7.628;2022-08-19T03:08:34;17.30;;;14.00;;
3369;SDS011;42042;51.948;7.628;2022-08-19T03:11:01;14.17;;;12.70;;
3369;SDS011;42042;51.948;7.628;2022-08-19T03:13:28;18.60;;;12.80;;
3369;SDS011;42042;51.948;7.628;2022-08-19T03:15:55;15.93;;;12.73;;
3369;SDS011;42042;51.948;7.628;2022-08-19T03:18:24;15.80;;;13.30;;
3369;SDS011;42042;51.948;7.628;2022-08-19T03:20:52;18.47;;;13.77;;
3369;SDS011;42042;51.948;7.628;2022-08-19T03:23:21;15.40;;;13.80;;
3369;SDS011;42042;51.948;7.628;2022-08-19T03:25:49;18.10;;;13.70;;
3369;SDS011;42042;51.948;7.628;2022-08-19T03:28:16;17.57;;;15.23;;
3369;SDS011;42042;51.948;7.628;2022-08-19T03:30:54;17.00;;;15.40;;
3369;SDS011;42042;51.948;7.628;2022-08-19T03:33:22;16.83;;;15.03;;
3369;SDS011;42042;51.948;7.628;2022-08-19T03:35:59;19.73;;;15.27;;
3369;SDS011;42042;51.948;7.628;2022-08-19T03:38:27;18.03;;;16.27;;
3369;SDS011;42042;51.948;7.628;2022-08-19T03:40:55;17.63;;;14.40;;
3369;SDS011;42042;51.948;7.628;2022-08-19T03:43:22;16.90;;;15.20;;
3369;SDS011;42042;51.948;7.628;2022-08-19T03:45:58;16.63;;;14.20;;
3369;SDS011;42042;51.948;7.628;2022-08-19T03:48:26;18.00;;;14.70;;
3369;SDS011;42042;51.948;7.628;2022-08-19T03:50:55;18.20;;;15.07;;
3369;SDS011;42042;51.948;7.628;2022-08-19T03:53:23;18.07;;;14.23;;
3369;SDS011;42042;51.948;7.628;2022-08-19T03:55:52;16.50;;;14.13;;
3369;SDS011;42042;51.948;7.628;2022-08-19T03:58:19;17.33;;;14.50;;
3369;SDS011;42042;51.948;7.628;2022-08-19T04:00:46;16.87;;;14.93;;
3369;SDS011;42042;51.948;7.628;2022-08-19T04:03:14;21.53;;;16.00;;
3369;SDS011;42042;51.948;7.628;2022-08-19T04:05:43;24.00;;;16.07;;
3369;SDS011;42042;51.948;7.628;2022-08-19T04:08:10;27.30;;;17.53;;
3369;SDS011;42042;51.948;7.628;2022-08-19T04:10:38;20.97;;;15.70;;
3369;SDS011;42042;51.948;7.628;2022-08-19T04:13:08;19.83;;;15.90;;
3369;SDS011;42042;51.948;7.628;2022-08-19T04:15:38;19.53;;;17.53;;
3369;SDS011;42042;51.948;7.628;2022-08-19T04:18:06;25.70;;;16.40;;
3369;SDS011;42042;51.948;7.628;2022-08-19T04:20:38;24.77;;;17.87;;
3369;SDS011;42042;51.948;7.628;2022-08-19T04:23:05;23.63;;;17.37;;
3369;SDS011;42042;51.948;7.628;2022-08-19T04:25:34;21.17;;;18.70;;
3369;SDS011;42042;51.948;7.628;2022-08-19T04:28:02;22.03;;;19.60;;
3369;SDS011;42042;51.948;7.628;2022-08-19T04:30:30;20.27;;;18.17;;
3369;SDS011;42042;51.948;7.628;2022-08-19T04:32:58;20.23;;;18.13;;
3369;SDS011;42042;51.948;7.628;2022-08-19T04:35:25;23.07;;;18.50;;
3369;SDS011;42042;51.948;7.628;2022-08-19T04:37:52;18.93;;;15.87;;
3369;SDS011;42042;51.948;7.628;2022-08-19T04:40:19;21.13;;;18.67;;
3369;SDS011;42042;51.948;7.628;2022-08-19T04:43:04;22.80;;;17.70;;
3369;SDS011;42042;51.948;7.628;2022-08-19T04:45:33;23.77;;;18.30;;
3369;SDS011;42042;51.948;7.628;2022-08-19T04:48:00;27.93;;;19.33;;
3369;SDS011;42042;51.948;7.628;2022-08-19T04:50:27;21.30;;;18.30;;
3369;SDS011;42042;51.948;7.628;2022-08-19T04:52:54;20.80;;;18.60;;
3369;SDS011;42042;51.948;7.628;2022-08-19T04:55:21;24.20;;;18.17;;
3369;SDS011;42042;51.948;7.628;2022-08-19T04:57:50;21.30;;;18.10;;
3369;SDS011;42042;51.948;7.628;2022-08-19T05:00:17;22.77;;;20.30;;
3369;SDS011;42042;51.948;7.628;2022-08-19T05:02:46;21.57;;;19.00;;
3369;SDS011;42042;51.948;7.628;2022-08-19T05:05:14;26.57;;;20.57;;
3369;SDS011;42042;51.948;7.628;2022-08-19T05:07:41;22.77;;;20.27;;
3369;SDS011;42042;51.948;7.628;2022-08-19T05:10:09;24.00;;;20.30;;
3369;SDS011;42042;51.948;7.628;2022-08-19T05:12:36;27.87;;;21.00;;
3369;SDS011;42042;51.948;7.628;2022-08-19T05:15:04;25.60;;;21.17;;
3369;SDS011;42042;51.948;7.628;2022-08-19T05:17:33;25.30;;;20.70;;
3369;SDS011;42042;51.948;7.628;2022-08-19T05:20:02;25.43;;;20.30;;
3369;SDS011;42042;51.948;7.628;2022-08-19T05:22:47;34.20;;;20.37;;
3369;SDS011;42042;51.948;7.628;2022-08-19T05:25:16;22.40;;;17.43;;
3369;SDS011;42042;51.948;7.628;2022-08-19T05:27:44;28.73;;;18.90;;
3369;SDS011;42042;51.948;7.628;2022-08-19T05:30:11;24.93;;;17.00;;
3369;SDS011;42042;51.948;7.628;2022-08-19T05:32:39;19.47;;;16.83;;
3369;SDS011;42042;51.948;7.628;2022-08-19T05:35:08;19.93;;;16.90;;
3369;SDS011;42042;51.948;7.628;2022-08-19T05:37:36;19.33;;;15.83;;
3369;SDS011;42042;51.948;7.628;2022-08-19T05:40:05;25.33;;;17.97;;
3369;SDS011;42042;51.948;7.628;2022-08-19T05:42:32;24.90;;;16.17;;
3369;SDS011;42042;51.948;7.628;2022-08-19T05:45:00;19.40;;;15.13;;
3369;SDS011;42042;51.948;7.628;2022-08-19T05:47:27;27.03;;;16.43;;
3369;SDS011;42042;51.948;7.628;2022-08-19T05:49:54;21.13;;;14.43;;
3369;SDS011;42042;51.948;7.628;2022-08-19T05:52:23;21.53;;;14.87;;
3369;SDS011;42042;51.948;7.628;2022-08-19T05:54:52;22.03;;;16.43;;
3369;SDS011;42042;51.948;7.628;2022-08-19T05:57:20;28.67;;;16.43;;
3369;SDS011;42042;51.948;7.628;2022-08-19T05:59:48;27.00;;;17.57;;
3369;SDS011;42042;51.948;7.628;2022-08-19T06:02:16;32.30;;;17.20;;
3369;SDS011;42042;51.948;7.628;2022-08-19T06:04:43;27.70;;;18.43;;
3369;SDS011;42042;51.948;7.628;2022-08-19T06:07:10;24.90;;;18.80;;
3369;SDS011;42042;51.948;7.628;2022-08-19T06:09:39;22.27;;;17.43;;
3369;SDS011;42042;51.948;7.628;2022-08-19T06:12:06;22.40;;;17.23;;
3369;SDS011;42042;51.948;7.628;2022-08-19T06:14:34;24.87;;;17.70;;
3369;SDS011;42042;51.948;7.628;2022-08-19T06:17:02;22.83;;;19.50;;
3369;SDS011;42042;51.948;7.628;2022-08-19T06:19:29;20.43;;;16.40;;
3369;SDS011;42042;51.948;7.628;2022-08-19T06:21:57;20.87;;;16.23;;
3369;SDS011;42042;51.948;7.628;2022-08-19T06:24:25;19.17;;;17.13;;
3369;SDS011;42042;51.948;7.628;2022-08-19T06:26:54;19.43;;;15.93;;
3369;SDS011;42042;51.948;7.628;2022-08-19T06:29:22;18.10;;;16.20;;
3369;SDS011;42042;51.948;7.628;2022-08-19T06:31:51;24.30;;;18.07;;
3369;SDS011;42042;51.948;7.628;2022-08-19T06:34:19;20.23;;;16.03;;
3369;SDS011;42042;51.948;7.628;2022-08-19T06:36:47;19.17;;;17.23;;
3369;SDS011;42042;51.948;7.628;2022-08-19T06:39:15;22.23;;;17.97;;
3369;SDS011;42042;51.948;7.628;2022-08-19T06:41:44;22.80;;;17.63;;
3369;SDS011;42042;51.948;7.628;2022-08-19T06:44:13;22.93;;;16.40;;
3369;SDS011;42042;51.948;7.628;2022-08-19T06:46:40;20.47;;;16.27;;
3369;SDS011;42042;51.948;7.628;2022-08-19T06:49:07;22.43;;;17.93;;
3369;SDS011;42042;51.948;7.628;2022-08-19T06:51:39;20.10;;;17.03;;
3369;SDS011;42042;51.948;7.628;2022-08-19T06:54:06;23.93;;;17.23;;
3369;SDS011;42042;51.948;7.628;2022-08-19T06:56:33;19.90;;;17.80;;
3369;SDS011;42042;51.948;7.628;2022-08-19T06:59:00;21.30;;;16.93;;
3369;SDS011;42042;51.948;7.628;2022-08-19T07:01:29;23.90;;;17.80;;
3369;SDS011;42042;51.948;7.628;2022-08-19T07:03:56;21.27;;;17.83;;
3369;SDS011;42042;51.948;7.628;2022-08-19T07:06:26;20.13;;;17.07;;
3369;SDS011;42042;51.948;7.628;2022-08-19T07:08:56;30.73;;;18.30;;
3369;SDS011;42042;51.948;7.628;2022-08-19T07:11:24;21.07;;;18.80;;
3369;SDS011;42042;51.948;7.628;2022-08-19T07:13:51;22.57;;;16.90;;
3369;SDS011;42042;51.948;7.628;2022-08-19T07:16:19;19.03;;;17.03;;
3369;SDS011;42042;51.948;7.628;2022-08-19T07:18:48;27.30;;;17.60;;
3369;SDS011;42042;51.948;7.628;2022-08-19T07:21:17;21.47;;;17.70;;
3369;SDS011;42042;51.948;7.628;2022-08-19T07:23:44;23.30;;;17.60;;
3369;SDS011;42042;51.948;7.628;2022-08-19T07:26:14;23.13;;;16.50;;
3369;SDS011;42042;51.948;7.628;2022-08-19T07:28:42;24.23;;;16.10;;
3369;SDS011;42042;51.948;7.628;2022-08-19T07:31:10;20.77;;;16.10;;
3369;SDS011;42042;51.948;7.628;2022-08-19T07:33:38;21.50;;;15.97;;
3369;SDS011;42042;51.948;7.628;2022-08-19T07:36:09;16.57;;;14.73;;
3369;SDS011;42042;51.948;7.628;2022-08-19T07:38:38;19.63;;;15.70;;
3369;SDS011;42042;51.948;7.628;2022-08-19T07:41:05;19.67;;;16.73;;
3369;SDS011;42042;51.948;7.628;2022-08-19T07:43:33;21.23;;;16.57;;
3369;SDS011;42042;51.948;7.628;2022-08-19T07:46:00;23.90;;;16.20;;
3369;SDS011;42042;51.948;7.628;2022-08-19T07:48:27;28.80;;;17.37;;
3369;SDS011;42042;51.948;7.628;2022-08-19T07:50:56;20.03;;;15.43;;
3369;SDS011;42042;51.948;7.628;2022-08-19T07:53:29;21.23;;;15.27;;
3369;SDS011;42042;51.948;7.628;2022-08-19T07:55:56;19.43;;;16.03;;
3369;SDS011;42042;51.948;7.628;2022-08-19T07:58:28;21.67;;;15.40;;
3369;SDS011;42042;51.948;7.628;2022-08-19T08:00:57;22.40;;;16.30;;
3369;SDS011;42042;51.948;7.628;2022-08-19T08:03:24;20.10;;;15.97;;
3369;SDS011;42042;51.948;7.628;2022-08-19T08:06:12;19.43;;;14.90;;
3369;SDS011;42042;51.948;7.628;2022-08-19T08:08:58;22.50;;;16.90;;
3369;SDS011;42042;51.948;7.628;2022-08-19T08:11:43;21.00;;;15.40;;
3369;SDS011;42042;51.948;7.628;2022-08-19T08:14:14;18.50;;;16.10;;
3369;SDS011;42042;51.948;7.628;2022-08-19T08:16:42;19.00;;;15.73;;
3369;SDS011;42042;51.948;7.628;2022-08-19T08:19:10;16.20;;;14.60;;
3369;SDS011;42042;51.948;7.628;2022-08-19T08:21:40;19.57;;;14.67;;
3369;SDS011;42042;51.948;7.628;2022-08-19T08:24:08;17.10;;;14.97;;
3369;SDS011;42042;51.948;7.628;2022-08-19T08:26:36;20.53;;;12.97;;
3369;SDS011;42042;51.948;7.628;2022-08-19T08:29:03;19.37;;;14.00;;
3369;SDS011;42042;51.948;7.628;2022-08-19T08:31:33;13.93;;;12.33;;
3369;SDS011;42042;51.948;7.628;2022-08-19T08:34:00;18.00;;;14.87;;
3369;SDS011;42042;51.948;7.628;2022-08-19T08:36:28;16.97;;;15.07;;
3369;SDS011;42042;51.948;7.628;2022-08-19T08:38:58;17.57;;;15.33;;
3369;SDS011;42042;51.948;7.628;2022-08-19T08:41:28;14.60;;;13.10;;
3369;SDS011;42042;51.948;7.628;2022-08-19T08:43:57;15.70;;;13.90;;
3369;SDS011;42042;51.948;7.628;2022-08-19T08:46:26;14.87;;;13.20;;
3369;SDS011;42042;51.948;7.628;2022-08-19T08:48:59;14.20;;;12.73;;
3369;SDS011;42042;51.948;7.628;2022-08-19T08:51:32;15.60;;;14.00;;
3369;SDS011;42042;51.948;7.628;2022-08-19T08:54:00;15.70;;;12.20;;
3369;SDS011;42042;51.948;7.628;2022-08-19T08:56:30;13.93;;;12.57;;
3369;SDS011;42042;51.948;7.628;2022-08-19T08:58:58;14.23;;;12.80;;
3369;SDS011;42042;51.948;7.628;2022-08-19T09:01:26;14.90;;;11.47;;
3369;SDS011;42042;51.948;7.628;2022-08-19T09:03:54;16.73;;;15.23;;
3369;SDS011;42042;51.948;7.628;2022-08-19T09:06:22;13.53;;;12.23;;
3369;SDS011;42042;51.948;7.628;2022-08-19T09:08:54;13.57;;;11.00;;
3369;SDS011;42042;51.948;7.628;2022-08-19T09:11:28;12.47;;;11.30;;
3369;SDS011;42042;51.948;7.628;2022-08-19T09:14:02;11.67;;;10.47;;
3369;SDS011;42042;51.948;7.628;2022-08-19T09:16:33;12.90;;;11.60;;
3369;SDS011;42042;51.948;7.628;2022-08-19T09:19:01;11.10;;;10.00;;
3369;SDS011;42042;51.948;7.628;2022-08-19T09:21:29;11.60;;;9.87;;
3369;SDS011;42042;51.948;7.628;2022-08-19T09:23:57;8.90;;;7.90;;
3369;SDS011;42042;51.948;7.628;2022-08-19T09:26:24;10.93;;;8.50;;
3369;SDS011;42042;51.948;7.628;2022-08-19T09:28:52;8.93;;;8.23;;
3369;SDS011;42042;51.948;7.628;2022-08-19T09:31:21;9.37;;;7.90;;
3369;SDS011;42042;51.948;7.628;2022-08-19T09:33:49;8.30;;;7.50;;
3369;SDS011;42042;51.948;7.628;2022-08-19T09:36:17;7.97;;;7.17;;
3369;SDS011;42042;51.948;7.628;2022-08-19T09:38:45;7.60;;;6.90;;
3369;SDS011;42042;51.948;7.628;2022-08-19T09:41:13;8.03;;;7.27;;
3369;SDS011;42042;51.948;7.628;2022-08-19T09:43:41;7.47;;;6.10;;
3369;SDS011;42042;51.948;7.628;2022-08-19T09:46:09;6.40;;;5.87;;
3369;SDS011;42042;51.948;7.628;2022-08-19T09:48:38;7.60;;;7.00;;
3369;SDS011;42042;51.948;7.628;2022-08-19T09:51:09;6.60;;;6.10;;
3369;SDS011;42042;51.948;7.628;2022-08-19T09:53:37;8.23;;;5.57;;
3369;SDS011;42042;51.948;7.628;2022-08-19T09:56:05;6.60;;;6.00;;
3369;SDS011;42042;51.948;7.628;2022-08-19T09:58:32;6.60;;;6.00;;
3369;SDS011;42042;51.948;7.628;2022-08-19T10:01:00;8.30;;;6.60;;
3369;SDS011;42042;51.948;7.628;2022-08-19T10:03:28;8.93;;;7.73;;
3369;SDS011;42042;51.948;7.628;2022-08-19T10:05:58;8.50;;;7.27;;
3369;SDS011;42042;51.948;7.628;2022-08-19T10:08:27;6.97;;;6.37;;
3369;SDS011;42042;51.948;7.628;2022-08-19T10:10:55;7.53;;;6.10;;
3369;SDS011;42042;51.948;7.628;2022-08-19T10:13:23;11.80;;;7.30;;
3369;SDS011;42042;51.948;7.628;2022-08-19T10:15:51;10.70;;;6.93;;
3369;SDS011;42042;51.948;7.628;2022-08-19T10:18:19;6.90;;;6.10;;
3369;SDS011;42042;51.948;7.628;2022-08-19T10:20:47;8.50;;;7.27;;
3369;SDS011;42042;51.948;7.628;2022-08-19T10:23:17;10.00;;;7.50;;
3369;SDS011;42042;51.948;7.628;2022-08-19T10:25:44;9.53;;;7.03;;
3369;SDS011;42042;51.948;7.628;2022-08-19T10:28:12;7.53;;;6.90;;
3369;SDS011;42042;51.948;7.628;2022-08-19T10:30:40;6.83;;;6.13;;
3369;SDS011;42042;51.948;7.628;2022-08-19T10:33:07;7.97;;;7.00;;
3369;SDS011;42042;51.948;7.628;2022-08-19T10:35:35;7.17;;;6.57;;
3369;SDS011;42042;51.948;7.628;2022-08-19T10:38:02;8.70;;;7.00;;
3369;SDS011;42042;51.948;7.628;2022-08-19T10:40:31;7.20;;;6.50;;
3369;SDS011;42042;51.948;7.628;2022-08-19T10:42:58;6.67;;;6.13;;
3369;SDS011;42042;51.948;7.628;2022-08-19T10:45:25;7.10;;;5.43;;
3369;SDS011;42042;51.948;7.628;2022-08-19T10:47:53;5.83;;;5.40;;
3369;SDS011;42042;51.948;7.628;2022-08-19T10:50:20;6.30;;;5.67;;
3369;SDS011;42042;51.948;7.628;2022-08-19T10:53:05;6.03;;;4.97;;
3369;SDS011;42042;51.948;7.628;2022-08-19T10:55:35;5.50;;;4.60;;
3369;SDS011;42042;51.948;7.628;2022-08-19T10:58:21;4.73;;;4.43;;
3369;SDS011;42042;51.948;7.628;2022-08-19T11:00:51;7.10;;;4.07;;
3369;SDS011;42042;51.948;7.628;2022-08-19T11:03:18;5.20;;;4.80;;
3369;SDS011;42042;51.948;7.628;2022-08-19T11:05:46;3.97;;;3.67;;
3369;SDS011;42042;51.948;7.628;2022-08-19T11:08:14;4.60;;;4.30;;
3369;SDS011;42042;51.948;7.628;2022-08-19T11:10:42;5.10;;;4.70;;
3369;SDS011;42042;51.948;7.628;2022-08-19T11:13:10;6.80;;;4.67;;
3369;SDS011;42042;51.948;7.628;2022-08-19T11:15:37;5.93;;;5.10;;
3369;SDS011;42042;51.948;7.628;2022-08-19T11:18:04;6.00;;;5.33;;
3369;SDS011;42042;51.948;7.628;2022-08-19T11:20:33;6.63;;;6.03;;
3369;SDS011;42042;51.948;7.628;2022-08-19T11:23:00;6.60;;;6.00;;
3369;SDS011;42042;51.948;7.628;2022-08-19T11:25:27;6.13;;;5.63;;
3369;SDS011;42042;51.948;7.628;2022-08-19T11:27:56;5.47;;;5.03;;
3369;SDS011;42042;51.948;7.628;2022-08-19T11:30:23;6.53;;;5.93;;
3369;SDS011;42042;51.948;7.628;2022-08-19T11:32:50;5.60;;;5.10;;
3369;SDS011;42042;51.948;7.628;2022-08-19T11:35:17;6.87;;;6.03;;
3369;SDS011;42042;51.948;7.628;2022-08-19T11:37:45;7.63;;;5.87;;
3369;SDS011;42042;51.948;7.628;2022-08-19T11:40:12;5.40;;;5.00;;
3369;SDS011;42042;51.948;7.628;2022-08-19T11:42:39;5.73;;;5.23;;
3369;SDS011;42042;51.948;7.628;2022-08-19T11:45:23;6.33;;;5.83;;
3369;SDS011;42042;51.948;7.628;2022-08-19T11:47:51;6.10;;;5.70;;
3369;SDS011;42042;51.948;7.628;2022-08-19T11:50:18;8.23;;;5.50;;
3369;SDS011;42042;51.948;7.628;2022-08-19T11:52:46;6.53;;;5.93;;
3369;SDS011;42042;51.948;7.628;2022-08-19T11:55:14;6.40;;;5.80;;
3369;SDS011;42042;51.948;7.628;2022-08-19T11:57:42;7.87;;;7.07;;
3369;SDS011;42042;51.948;7.628;2022-08-19T12:00:09;8.10;;;6.63;;
3369;SDS011;42042;51.948;7.628;2022-08-19T12:02:39;8.37;;;7.57;;
3369;SDS011;42042;51.948;7.628;2022-08-19T12:05:07;7.57;;;6.87;;
3369;SDS011;42042;51.948;7.628;2022-08-19T12:07:34;8.90;;;8.00;;
3369;SDS011;42042;51.948;7.628;2022-08-19T12:10:02;9.53;;;8.60;;
3369;SDS011;42042;51.948;7.628;2022-08-19T12:12:29;12.73;;;7.87;;
3369;SDS011;42042;51.948;7.628;2022-08-19T12:14:57;9.90;;;9.03;;
3369;SDS011;42042;51.948;7.628;2022-08-19T12:17:24;8.97;;;8.17;;
3369;SDS011;42042;51.948;7.628;2022-08-19T12:19:57;10.17;;;9.13;;
3369;SDS011;42042;51.948;7.628;2022-08-19T12:22:24;9.67;;;8.70;;
3369;SDS011;42042;51.948;7.628;2022-08-19T12:24:52;13.07;;;10.63;;
3369;SDS011;42042;51.948;7.628;2022-08-19T12:27:20;10.23;;;9.17;;
3369;SDS011;42042;51.948;7.628;2022-08-19T12:29:47;9.60;;;8.80;;
3369;SDS011;42042;51.948;7.628;2022-08-19T12:32:14;10.60;;;9.70;;
3369;SDS011;42042;51.948;7.628;2022-08-19T12:34:42;11.67;;;10.67;;
3369;SDS011;42042;51.948;7.628;2022-08-19T12:37:10;10.43;;;9.43;;
3369;SDS011;42042;51.948;7.628;2022-08-19T12:39:39;9.50;;;8.63;;
3369;SDS011;42042;51.948;7.628;2022-08-19T12:42:07;9.90;;;9.00;;
3369;SDS011;42042;51.948;7.628;2022-08-19T12:44:34;10.37;;;9.37;;
3369;SDS011;42042;51.948;7.628;2022-08-19T12:47:01;8.23;;;7.63;;
3369;SDS011;42042;51.948;7.628;2022-08-19T12:49:29;10.30;;;7.93;;
3369;SDS011;42042;51.948;7.628;2022-08-19T12:51:58;7.90;;;7.20;;
3369;SDS011;42042;51.948;7.628;2022-08-19T12:54:27;8.17;;;7.47;;
3369;SDS011;42042;51.948;7.628;2022-08-19T12:56:55;7.93;;;7.27;;
3369;SDS011;42042;51.948;7.628;2022-08-19T12:59:23;9.30;;;7.70;;
3369;SDS011;42042;51.948;7.628;2022-08-19T13:01:50;8.40;;;7.60;;
3369;SDS011;42042;51.948;7.628;2022-08-19T13:04:17;7.53;;;6.90;;
3369;SDS011;42042;51.948;7.628;2022-08-19T13:06:44;7.90;;;7.10;;
3369;SDS011;42042;51.948;7.628;2022-08-19T13:09:12;7.30;;;6.60;;
3369;SDS011;42042;51.948;7.628;2022-08-19T13:11:40;9.73;;;7.13;;
3369;SDS011;42042;51.948;7.628;2022-08-19T13:14:08;6.43;;;5.80;;
3369;SDS011;42042;51.948;7.628;2022-08-19T13:16:36;6.03;;;5.03;;
3369;SDS011;42042;51.948;7.628;2022-08-19T13:19:03;6.03;;;5.53;;
3369;SDS011;42042;51.948;7.628;2022-08-19T13:21:32;6.53;;;5.40;;
3369;SDS011;42042;51.948;7.628;2022-08-19T13:23:59;6.10;;;5.60;;
3369;SDS011;42042;51.948;7.628;2022-08-19T13:26:27;5.40;;;4.90;;
3369;SDS011;42042;51.948;7.628;2022-08-19T13:28:55;7.00;;;6.40;;
3369;SDS011;42042;51.948;7.628;2022-08-19T13:31:40;9.10;;;5.67;;
3369;SDS011;42042;51.948;7.628;2022-08-19T13:34:27;8.07;;;7.13;;
3369;SDS011;42042;51.948;7.628;2022-08-19T13:36:55;8.00;;;7.20;;
3369;SDS011;42042;51.948;7.628;2022-08-19T13:39:22;7.60;;;6.90;;
3369;SDS011;42042;51.948;7.628;2022-08-19T13:41:49;7.27;;;6.60;;
3369;SDS011;42042;51.948;7.628;2022-08-19T13:44:18;6.97;;;6.37;;
3369;SDS011;42042;51.948;7.628;2022-08-19T13:46:46;8.70;;;6.87;;
3369;SDS011;42042;51.948;7.628;2022-08-19T13:49:14;7.90;;;7.10;;
3369;SDS011;42042;51.948;7.628;2022-08-19T13:51:41;7.50;;;6.90;;
3369;SDS011;42042;51.948;7.628;2022-08-19T13:54:09;8.07;;;7.37;;
3369;SDS011;42042;51.948;7.628;2022-08-19T13:56:39;24.13;;;9.00;;
3369;SDS011;42042;51.948;7.628;2022-08-19T13:59:07;10.43;;;7.03;;
3369;SDS011;42042;51.948;7.628;2022-08-19T14:01:36;9.40;;;6.40;;
3369;SDS011;42042;51.948;7.628;2022-08-19T14:04:03;28.00;;;10.63;;
3369;SDS011;42042;51.948;7.628;2022-08-19T14:06:31;7.33;;;6.73;;
3369;SDS011;42042;51.948;7.628;2022-08-19T14:08:58;7.80;;;7.17;;
3369;SDS011;42042;51.948;7.628;2022-08-19T14:11:27;9.37;;;7.00;;
3369;SDS011;42042;51.948;7.628;2022-08-19T14:13:57;7.87;;;7.07;;
3369;SDS011;42042;51.948;7.628;2022-08-19T14:16:24;7.97;;;6.80;;
3369;SDS011;42042;51.948;7.628;2022-08-19T14:18:53;7.37;;;6.83;;
3369;SDS011;42042;51.948;7.628;2022-08-19T14:21:21;7.30;;;6.60;;
3369;SDS011;42042;51.948;7.628;2022-08-19T14:23:49;7.93;;;7.23;;
3369;SDS011;42042;51.948;7.628;2022-08-19T14:26:17;7.60;;;6.90;;
3369;SDS011;42042;51.948;7.628;2022-08-19T14:28:44;7.70;;;7.10;;
3369;SDS011;42042;51.948;7.628;2022-08-19T14:31:12;7.37;;;6.33;;
3369;SDS011;42042;51.948;7.628;2022-08-19T14:33:41;7.40;;;6.80;;
3369;SDS011;42042;51.948;7.628;2022-08-19T14:36:10;7.53;;;6.80;;
3369;SDS011;42042;51.948;7.628;2022-08-19T14:38:37;6.67;;;6.10;;
3369;SDS011;42042;51.948;7.628;2022-08-19T14:41:06;8.50;;;7.30;;
3369;SDS011;42042;51.948;7.628;2022-08-19T14:43:33;7.80;;;7.10;;
3369;SDS011;42042;51.948;7.628;2022-08-19T14:46:01;10.27;;;6.53;;
3369;SDS011;42042;51.948;7.628;2022-08-19T14:48:28;7.60;;;6.90;;
3369;SDS011;42042;51.948;7.628;2022-08-19T14:50:56;7.13;;;6.53;;
3369;SDS011;42042;51.948;7.628;2022-08-19T14:53:24;7.07;;;6.37;;